createdAt,value
2019-01-10T00:00:39.551Z,2.20
2019-01-10T00:03:10.917Z,2.17
2019-01-10T00:05:42.336Z,2.93
2019-01-10T00:08:13.812Z,2.13
2019-01-10T00:10:45.765Z,1.90
2019-01-10T00:13:17.466Z,2.00
2019-01-10T00:15:50.038Z,2.03
2019-01-10T00:18:21.730Z,2.03
2019-01-10T00:20:56.505Z,2.00
2019-01-10T00:23:28.100Z,1.70
2019-01-10T00:25:59.564Z,2.33
2019-01-10T00:28:32.048Z,1.83
2019-01-10T00:31:03.518Z,2.37
2019-01-10T00:33:36.828Z,1.87
2019-01-10T00:36:08.313Z,2.07
2019-01-10T00:38:39.855Z,1.90
2019-01-10T00:41:11.588Z,1.73
2019-01-10T00:43:43.275Z,1.90
2019-01-10T00:46:14.984Z,2.00
2019-01-10T00:48:46.428Z,1.70
2019-01-10T00:51:17.931Z,2.00
2019-01-10T00:53:49.467Z,1.57
2019-01-10T00:56:22.227Z,2.10
2019-01-10T00:58:53.840Z,2.10
2019-01-10T01:01:26.020Z,2.00
2019-01-10T01:03:57.449Z,2.43
2019-01-10T01:06:29.087Z,1.63
2019-01-10T01:09:00.880Z,2.30
2019-01-10T01:11:34.212Z,1.93
2019-01-10T01:14:06.323Z,1.67
2019-01-10T01:16:37.753Z,1.80
2019-01-10T01:19:09.475Z,2.13
2019-01-10T01:21:41.707Z,2.40
2019-01-10T01:24:14.224Z,2.03
2019-01-10T01:26:45.674Z,2.10
2019-01-10T01:29:18.554Z,1.60
2019-01-10T01:31:50.985Z,2.07
2019-01-10T01:34:22.428Z,1.70
2019-01-10T01:36:55.202Z,2.20
2019-01-10T01:39:26.686Z,1.67
2019-01-10T01:41:58.244Z,1.70
2019-01-10T01:44:31.224Z,1.70
2019-01-10T01:47:02.929Z,1.73
2019-01-10T01:49:34.573Z,1.80
2019-01-10T01:52:06.141Z,2.10
2019-01-10T01:54:37.560Z,1.70
2019-01-10T01:57:09.122Z,1.80
2019-01-10T01:59:40.490Z,1.80
2019-01-10T02:02:11.901Z,1.90
2019-01-10T02:04:43.242Z,2.43
2019-01-10T02:07:14.751Z,2.40
2019-01-10T02:09:46.251Z,2.30
2019-01-10T02:12:18.616Z,3.30
2019-01-10T02:14:50.255Z,3.00
2019-01-10T02:17:21.635Z,3.67
2019-01-10T02:19:53.097Z,2.87
2019-01-10T02:22:26.293Z,3.20
2019-01-10T02:24:59.053Z,2.87
2019-01-10T02:27:30.798Z,2.70
2019-01-10T02:30:02.229Z,2.97
2019-01-10T02:32:33.990Z,2.60
2019-01-10T02:35:06.231Z,2.73
2019-01-10T02:37:37.741Z,2.30
2019-01-10T02:40:09.785Z,2.27
2019-01-10T02:42:41.328Z,2.83
2019-01-10T02:45:13.846Z,2.57
2019-01-10T02:47:45.362Z,2.37
2019-01-10T02:50:21.724Z,2.93
2019-01-10T02:52:54.250Z,2.30
2019-01-10T02:55:25.737Z,2.30
2019-01-10T02:57:57.372Z,1.93
2019-01-10T03:00:28.767Z,1.90
2019-01-10T03:03:00.629Z,2.10
2019-01-10T03:05:33.022Z,2.53
2019-01-10T03:08:04.956Z,2.30
2019-01-10T03:10:36.282Z,1.83
2019-01-10T03:13:07.921Z,1.60
2019-01-10T03:15:40.601Z,1.77
2019-01-10T03:18:12.129Z,2.23
2019-01-10T03:20:44.187Z,2.40
2019-01-10T03:23:15.738Z,2.50
2019-01-10T03:25:48.297Z,2.77
2019-01-10T03:28:20.396Z,3.57
2019-01-10T03:30:51.923Z,2.63
2019-01-10T03:33:23.390Z,2.60
2019-01-10T03:35:54.759Z,2.10
2019-01-10T03:38:26.325Z,2.77
2019-01-10T03:40:57.726Z,2.13
2019-01-10T03:43:29.095Z,2.60
2019-01-10T03:46:00.412Z,2.40
2019-01-10T03:48:32.408Z,2.50
2019-01-10T03:51:03.880Z,2.03
2019-01-10T03:53:35.758Z,2.10
2019-01-10T03:56:11.642Z,2.07
2019-01-10T03:58:43.175Z,2.47
2019-01-10T04:01:16.830Z,1.90
2019-01-10T04:03:48.701Z,2.00
2019-01-10T04:06:20.612Z,2.03
2019-01-10T04:08:56.008Z,2.20
2019-01-10T04:11:27.087Z,2.50
2019-01-10T04:13:58.657Z,1.97
2019-01-10T04:16:32.341Z,2.10
2019-01-10T04:19:04.218Z,2.50
2019-01-10T04:21:36.711Z,2.50
2019-01-10T04:24:08.351Z,2.13
2019-01-10T04:26:41.707Z,2.33
2019-01-10T04:29:13.310Z,2.13
2019-01-10T04:31:47.625Z,2.10
2019-01-10T04:34:18.692Z,1.93
2019-01-10T04:36:50.246Z,2.80
2019-01-10T04:39:21.745Z,2.77
2019-01-10T04:41:53.209Z,2.60
2019-01-10T04:44:24.767Z,3.13
2019-01-10T04:46:56.293Z,3.10
2019-01-10T04:49:29.721Z,3.13
2019-01-10T04:52:01.465Z,3.10
2019-01-10T04:54:38.309Z,2.83
2019-01-10T04:57:08.772Z,2.70
2019-01-10T04:59:40.160Z,3.07
2019-01-10T05:02:18.228Z,2.87
2019-01-10T05:04:45.086Z,3.00
2019-01-10T05:07:16.454Z,2.93
2019-01-10T05:09:47.916Z,2.93
2019-01-10T05:12:20.266Z,2.80
2019-01-10T05:14:52.164Z,3.13
2019-01-10T05:17:23.724Z,2.80
2019-01-10T05:19:55.480Z,3.00
2019-01-10T05:22:28.342Z,2.70
2019-01-10T05:24:59.673Z,2.90
2019-01-10T05:27:31.532Z,2.83
2019-01-10T05:30:03.295Z,2.90
2019-01-10T05:32:34.974Z,3.10
2019-01-10T05:35:07.036Z,2.77
2019-01-10T05:37:40.318Z,3.00
2019-01-10T05:40:12.210Z,8.33
2019-01-10T05:42:43.930Z,5.97
2019-01-10T05:45:16.155Z,10.87
2019-01-10T05:47:47.788Z,9.93
2019-01-10T05:50:24.849Z,9.97
2019-01-10T05:52:56.903Z,10.23
2019-01-10T05:55:28.668Z,10.07
2019-01-10T05:58:00.155Z,9.77
2019-01-10T06:00:31.604Z,9.17
2019-01-10T06:03:03.742Z,7.40
2019-01-10T06:05:36.354Z,6.43
2019-01-10T06:08:08.424Z,5.60
2019-01-10T06:10:39.944Z,5.00
2019-01-10T06:13:11.583Z,4.90
2019-01-10T06:15:43.066Z,5.00
2019-01-10T06:18:19.736Z,5.30
2019-01-10T06:20:52.640Z,4.10
2019-01-10T06:23:24.069Z,4.10
2019-01-10T06:25:55.510Z,3.70
2019-01-10T06:28:26.958Z,3.80
2019-01-10T06:31:00.649Z,3.90
2019-01-10T06:33:33.438Z,4.07
2019-01-10T06:36:05.380Z,4.43
2019-01-10T06:38:37.575Z,4.00
2019-01-10T06:41:09.941Z,4.40
2019-01-10T06:43:41.985Z,4.20
2019-01-10T06:46:14.132Z,4.67
2019-01-10T06:48:45.747Z,4.17
2019-01-10T06:51:17.117Z,4.17
2019-01-10T06:53:49.501Z,4.20
2019-01-10T06:56:22.542Z,4.40
2019-01-10T06:58:54.651Z,3.40
2019-01-10T07:01:26.161Z,3.87
2019-01-10T07:03:57.922Z,4.90
2019-01-10T07:06:29.321Z,4.97
2019-01-10T07:09:00.871Z,5.20
2019-01-10T07:11:33.922Z,5.10
2019-01-10T07:14:05.851Z,4.40
2019-01-10T07:16:37.272Z,4.60
2019-01-10T07:19:08.969Z,6.07
2019-01-10T07:21:57.055Z,4.90
2019-01-10T07:24:32.911Z,3.73
2019-01-10T07:27:05.351Z,3.00
2019-01-10T07:29:37.301Z,2.90
2019-01-10T07:32:09.207Z,3.40
2019-01-10T07:34:41.155Z,3.27
2019-01-10T07:37:13.232Z,4.00
2019-01-10T07:39:46.098Z,3.70
2019-01-10T07:42:19.042Z,4.03
2019-01-10T07:44:52.393Z,3.57
2019-01-10T07:47:28.766Z,3.33
2019-01-10T07:50:00.833Z,3.80
2019-01-10T07:52:32.872Z,4.10
2019-01-10T07:55:05.659Z,3.67
2019-01-10T07:57:38.476Z,3.43
2019-01-10T08:00:10.789Z,3.00
2019-01-10T08:02:43.126Z,3.53
2019-01-10T08:05:14.794Z,3.17
2019-01-10T08:07:47.054Z,3.30
2019-01-10T08:10:19.792Z,3.10
2019-01-10T08:12:52.634Z,3.70
2019-01-10T08:15:24.530Z,4.07
2019-01-10T08:17:55.916Z,2.90
2019-01-10T08:20:27.421Z,3.00
2019-01-10T08:22:59.138Z,3.30
2019-01-10T08:25:31.251Z,2.97
2019-01-10T08:28:02.926Z,3.20
2019-01-10T08:30:35.144Z,3.10
2019-01-10T08:33:06.718Z,3.63
2019-01-10T08:35:38.613Z,3.33
2019-01-10T08:38:10.252Z,4.00
2019-01-10T08:40:42.244Z,3.80
2019-01-10T08:43:13.844Z,3.63
2019-01-10T08:45:46.433Z,3.40
2019-01-10T08:48:17.857Z,3.40
2019-01-10T08:50:49.845Z,3.70
2019-01-10T08:53:21.758Z,3.63
2019-01-10T08:55:55.293Z,3.63
2019-01-10T08:58:26.825Z,3.63
2019-01-10T09:00:58.489Z,3.63
2019-01-10T09:03:30.383Z,3.80
2019-01-10T09:06:08.099Z,4.00
2019-01-10T09:08:35.239Z,4.00
2019-01-10T09:11:06.653Z,4.03
2019-01-10T09:13:38.204Z,4.13
2019-01-10T09:16:14.505Z,3.83
2019-01-10T09:18:48.046Z,4.23
2019-01-10T09:21:19.487Z,4.10
2019-01-10T09:23:51.623Z,3.93
2019-01-10T09:26:23.241Z,3.93
2019-01-10T09:28:55.026Z,3.90
2019-01-10T09:31:26.556Z,4.50
2019-01-10T09:33:58.579Z,4.47
2019-01-10T09:36:31.292Z,4.60
2019-01-10T09:39:03.787Z,9.33
2019-01-10T09:41:36.869Z,7.40
2019-01-10T09:44:10.151Z,6.10
2019-01-10T09:46:42.379Z,6.37
2019-01-10T09:49:15.067Z,6.87
2019-01-10T09:51:48.404Z,7.03
2019-01-10T09:54:20.909Z,6.17
2019-01-10T09:56:52.423Z,6.87
2019-01-10T09:59:24.337Z,5.43
2019-01-10T10:01:55.713Z,5.47
2019-01-10T10:04:27.416Z,5.63
2019-01-10T10:06:59.646Z,4.90
2019-01-10T10:09:31.604Z,4.80
2019-01-10T10:12:03.257Z,4.87
2019-01-10T10:14:35.119Z,5.37
2019-01-10T10:17:06.658Z,5.07
2019-01-10T10:19:38.396Z,5.23
2019-01-10T10:22:10.187Z,5.03
2019-01-10T10:24:41.812Z,4.67
2019-01-10T10:27:13.671Z,4.80
2019-01-10T10:29:45.486Z,4.63
2019-01-10T10:32:17.004Z,4.83
2019-01-10T10:34:48.580Z,4.00
2019-01-10T10:37:20.312Z,4.57
2019-01-10T10:39:52.293Z,5.53
2019-01-10T10:42:23.919Z,4.70
2019-01-10T10:44:55.424Z,4.20
2019-01-10T10:47:27.576Z,4.43
2019-01-10T10:50:00.027Z,3.93
2019-01-10T10:52:31.691Z,4.00
2019-01-10T10:55:03.523Z,4.67
2019-01-10T10:57:35.180Z,4.23
2019-01-10T11:00:09.606Z,3.93
2019-01-10T11:02:41.123Z,3.43
2019-01-10T11:05:13.012Z,3.30
2019-01-10T11:07:45.554Z,3.50
2019-01-10T11:10:18.556Z,3.57
2019-01-10T11:12:50.362Z,4.73
2019-01-10T11:15:21.734Z,4.23
2019-01-10T11:17:54.458Z,3.50
2019-01-10T11:20:26.642Z,3.10
2019-01-10T11:22:58.064Z,2.97
2019-01-10T11:25:30.630Z,3.17
2019-01-10T11:28:03.322Z,3.83
2019-01-10T11:30:35.106Z,4.53
2019-01-10T11:33:06.723Z,5.07
2019-01-10T11:35:38.653Z,5.23
2019-01-10T11:38:10.243Z,5.00
2019-01-10T11:40:43.565Z,4.60
2019-01-10T11:43:17.165Z,4.23
2019-01-10T11:45:50.398Z,3.23
2019-01-10T11:48:22.185Z,3.27
2019-01-10T11:50:53.828Z,2.83
2019-01-10T11:53:25.822Z,2.90
2019-01-10T11:55:59.384Z,2.60
2019-01-10T11:58:30.990Z,3.60
2019-01-10T12:01:02.544Z,3.00
2019-01-10T12:03:34.128Z,2.97
2019-01-10T12:06:06.356Z,2.90
2019-01-10T12:08:38.390Z,3.40
2019-01-10T12:11:10.191Z,2.63
2019-01-10T12:13:41.731Z,2.90
2019-01-10T12:16:13.686Z,3.10
2019-01-10T12:18:45.265Z,2.97
2019-01-10T12:21:21.164Z,3.50
2019-01-10T12:23:52.780Z,14.57
2019-01-10T12:26:24.281Z,8.30
2019-01-10T12:28:57.986Z,3.83
2019-01-10T12:31:30.542Z,3.47
2019-01-10T12:34:03.043Z,2.83
2019-01-10T12:36:34.955Z,3.03
2019-01-10T12:39:08.125Z,3.40
2019-01-10T12:41:39.768Z,3.53
2019-01-10T12:44:11.721Z,4.13
2019-01-10T12:46:43.350Z,3.63
2019-01-10T12:49:14.902Z,4.70
2019-01-10T12:51:46.560Z,3.50
2019-01-10T12:54:18.373Z,3.37
2019-01-10T12:56:50.265Z,3.83
2019-01-10T12:59:22.243Z,3.20
2019-01-10T13:01:54.253Z,3.37
2019-01-10T13:04:25.715Z,4.20
2019-01-10T13:06:57.791Z,5.00
2019-01-10T13:09:29.595Z,4.20
2019-01-10T13:12:01.208Z,4.60
2019-01-10T13:14:32.707Z,4.60
2019-01-10T13:17:04.271Z,4.27
2019-01-10T13:19:35.659Z,3.80
2019-01-10T13:22:07.813Z,4.97
2019-01-10T13:24:40.404Z,4.00
2019-01-10T13:27:11.808Z,4.10
2019-01-10T13:29:43.421Z,4.80
2019-01-10T13:32:15.395Z,4.37
2019-01-10T13:34:47.107Z,4.90
2019-01-10T13:37:18.428Z,6.57
2019-01-10T13:39:51.150Z,5.63
2019-01-10T13:42:22.730Z,6.03
2019-01-10T13:44:54.890Z,3.93
2019-01-10T13:47:26.790Z,4.30
2019-01-10T13:50:01.318Z,4.77
2019-01-10T13:52:33.326Z,4.40
2019-01-10T13:55:05.802Z,3.87
2019-01-10T13:57:38.054Z,4.27
2019-01-10T14:00:14.847Z,3.17
2019-01-10T14:02:47.880Z,3.03
2019-01-10T14:05:21.536Z,3.00
2019-01-10T14:07:53.236Z,3.20
2019-01-10T14:10:26.579Z,3.00
2019-01-10T14:12:58.281Z,3.20
2019-01-10T14:15:32.207Z,3.47
2019-01-10T14:18:04.579Z,3.47
2019-01-10T14:20:35.918Z,3.87
2019-01-10T14:23:07.525Z,3.00
2019-01-10T14:25:39.854Z,3.13
2019-01-10T14:28:12.767Z,3.40
2019-01-10T14:30:44.226Z,3.00
2019-01-10T14:33:16.062Z,2.60
2019-01-10T14:35:47.538Z,2.83
2019-01-10T14:38:21.728Z,3.80
2019-01-10T14:40:53.766Z,3.20
2019-01-10T14:43:25.202Z,4.80
2019-01-10T14:45:59.056Z,3.30
2019-01-10T14:48:32.570Z,2.57
2019-01-10T14:51:04.330Z,2.83
2019-01-10T14:53:36.112Z,2.60
2019-01-10T14:56:08.118Z,2.23
2019-01-10T14:58:40.121Z,4.33
2019-01-10T15:01:11.701Z,2.80
2019-01-10T15:03:43.639Z,2.83
2019-01-10T15:06:15.223Z,3.40
2019-01-10T15:08:46.633Z,2.90
2019-01-10T15:11:18.704Z,3.47
2019-01-10T15:13:50.598Z,2.70
2019-01-10T15:16:22.733Z,3.00
2019-01-10T15:18:55.238Z,4.20
2019-01-10T15:21:26.670Z,3.60
2019-01-10T15:23:58.380Z,7.27
2019-01-10T15:26:29.939Z,6.23
2019-01-10T15:29:01.418Z,5.40
2019-01-10T15:31:32.878Z,5.07
2019-01-10T15:34:04.460Z,5.33
2019-01-10T15:36:37.627Z,5.60
2019-01-10T15:39:09.443Z,5.13
2019-01-10T15:41:41.116Z,5.33
2019-01-10T15:44:12.599Z,6.00
2019-01-10T15:46:45.292Z,5.37
2019-01-10T15:49:17.433Z,4.77
2019-01-10T15:51:49.129Z,17.93
2019-01-10T15:54:20.685Z,10.00
2019-01-10T15:56:53.537Z,4.33
2019-01-10T15:59:25.406Z,3.90
2019-01-10T16:01:58.835Z,4.97
2019-01-10T16:04:30.731Z,5.60
2019-01-10T16:07:02.318Z,8.80
2019-01-10T16:09:33.947Z,15.40
2019-01-10T16:12:07.261Z,15.67
2019-01-10T16:14:39.111Z,13.03
2019-01-10T16:17:10.551Z,10.93
2019-01-10T16:19:42.216Z,10.50
2019-01-10T16:22:13.799Z,7.17
2019-01-10T16:24:45.563Z,4.20
2019-01-10T16:27:17.109Z,5.63
2019-01-10T16:29:48.844Z,9.10
2019-01-10T16:32:21.629Z,7.93
2019-01-10T16:34:53.455Z,6.87
2019-01-10T16:37:25.295Z,8.77
2019-01-10T16:39:56.899Z,4.50
2019-01-10T16:42:28.403Z,4.93
2019-01-10T16:45:01.387Z,7.40
2019-01-10T16:47:32.851Z,5.00
2019-01-10T16:50:05.374Z,6.27
2019-01-10T16:52:40.510Z,7.40
2019-01-10T16:55:13.451Z,7.60
2019-01-10T16:57:46.341Z,6.80
2019-01-10T17:00:36.122Z,7.23
2019-01-10T17:03:08.259Z,10.33
2019-01-10T17:05:39.898Z,10.00
2019-01-10T17:08:12.084Z,11.40
2019-01-10T17:10:43.769Z,10.43
2019-01-10T17:13:15.387Z,11.57
2019-01-10T17:15:46.938Z,7.93
2019-01-10T17:18:18.803Z,7.17
2019-01-10T17:20:51.379Z,19.53
2019-01-10T17:23:22.921Z,20.67
2019-01-10T17:25:54.618Z,24.53
2019-01-10T17:28:28.722Z,25.80
2019-01-10T17:31:00.354Z,24.00
2019-01-10T17:33:31.772Z,21.57
2019-01-10T17:36:04.939Z,21.30
2019-01-10T17:38:36.883Z,19.20
2019-01-10T17:41:08.553Z,16.90
2019-01-10T17:43:40.252Z,19.37
2019-01-10T17:46:12.480Z,14.57
2019-01-10T17:48:44.206Z,12.80
2019-01-10T17:51:17.145Z,14.10
2019-01-10T17:53:48.969Z,15.03
2019-01-10T17:56:20.913Z,14.90
2019-01-10T17:58:53.184Z,11.57
2019-01-10T18:01:25.119Z,15.17
2019-01-10T18:03:57.139Z,12.43
2019-01-10T18:06:29.093Z,19.27
2019-01-10T18:09:00.815Z,29.03
2019-01-10T18:11:32.308Z,15.03
2019-01-10T18:14:04.608Z,18.40
2019-01-10T18:16:36.373Z,23.23
2019-01-10T18:19:11.400Z,23.77
2019-01-10T18:21:44.611Z,27.67
2019-01-10T18:24:19.334Z,26.10
2019-01-10T18:26:52.511Z,24.43
2019-01-10T18:29:24.378Z,24.23
2019-01-10T18:31:56.801Z,17.70
2019-01-10T18:34:28.584Z,19.57
2019-01-10T18:37:00.414Z,25.97
2019-01-10T18:39:32.307Z,23.40
2019-01-10T18:42:04.229Z,21.10
2019-01-10T18:44:36.598Z,16.73
2019-01-10T18:47:08.137Z,14.67
2019-01-10T18:49:39.774Z,15.50
2019-01-10T18:52:11.533Z,36.60
2019-01-10T18:54:42.953Z,31.47
2019-01-10T18:57:14.735Z,21.53
2019-01-10T18:59:46.577Z,16.77
2019-01-10T19:02:17.914Z,10.07
2019-01-10T19:04:49.559Z,8.93
2019-01-10T19:07:21.599Z,8.73
2019-01-10T19:09:53.107Z,8.40
2019-01-10T19:12:24.624Z,7.90
2019-01-10T19:14:55.977Z,8.17
2019-01-10T19:17:28.407Z,7.50
2019-01-10T19:20:00.968Z,7.27
2019-01-10T19:22:32.483Z,7.03
2019-01-10T19:25:04.414Z,7.00
2019-01-10T19:27:36.475Z,6.50
2019-01-10T19:30:14.721Z,5.33
2019-01-10T19:32:46.522Z,5.13
2019-01-10T19:35:17.954Z,5.60
2019-01-10T19:37:49.385Z,5.80
2019-01-10T19:40:21.992Z,4.93
2019-01-10T19:42:53.414Z,6.70
2019-01-10T19:45:52.266Z,7.10
2019-01-10T19:48:35.543Z,9.50
2019-01-10T19:51:01.686Z,8.70
2019-01-10T19:53:52.956Z,6.83
2019-01-10T19:56:45.669Z,6.50
2019-01-10T19:59:18.461Z,5.00
2019-01-10T20:01:53.269Z,4.50
2019-01-10T20:04:26.486Z,4.90
2019-01-10T20:07:24.720Z,4.63
2019-01-10T20:09:58.878Z,5.27
2019-01-10T20:12:33.443Z,5.30
2019-01-10T20:15:05.715Z,5.53
2019-01-10T20:17:42.380Z,5.23
2019-01-10T20:20:29.528Z,6.50
2019-01-10T20:23:01.809Z,5.70
2019-01-10T20:25:33.537Z,7.03
2019-01-10T20:28:05.033Z,7.53
2019-01-10T20:30:40.076Z,7.23
2019-01-10T20:33:12.171Z,8.07
2019-01-10T20:35:45.432Z,7.83
2019-01-10T20:38:17.949Z,8.37
2019-01-10T20:40:49.467Z,9.13
2019-01-10T20:43:21.129Z,9.20
2019-01-10T20:45:53.335Z,9.50
2019-01-10T20:48:25.275Z,9.83
2019-01-10T20:50:59.123Z,8.67
2019-01-10T20:53:30.646Z,8.90
2019-01-10T20:56:02.473Z,9.97
2019-01-10T20:58:35.356Z,10.50
2019-01-10T21:01:07.027Z,11.07
2019-01-10T21:03:40.029Z,11.10
2019-01-10T21:06:16.096Z,11.53
2019-01-10T21:08:51.398Z,12.57
2019-01-10T21:11:21.371Z,12.67
2019-01-10T21:13:55.999Z,13.50
2019-01-10T21:16:28.090Z,14.37
2019-01-10T21:18:59.901Z,14.97
2019-01-10T21:21:31.703Z,14.90
2019-01-10T21:24:04.026Z,13.73
2019-01-10T21:26:35.444Z,14.43
2019-01-10T21:29:07.084Z,14.40
2019-01-10T21:31:38.901Z,15.90
2019-01-10T21:34:10.574Z,14.60
2019-01-10T21:36:43.641Z,15.83
2019-01-10T21:39:15.458Z,15.40
2019-01-10T21:41:48.970Z,15.20
2019-01-10T21:44:20.830Z,16.70
2019-01-10T21:49:31.151Z,17.97
2019-01-10T21:52:02.583Z,16.83
2019-01-10T21:54:37.633Z,18.53
2019-01-10T21:57:09.390Z,17.93
2019-01-10T21:59:40.962Z,17.73
2019-01-10T22:02:12.374Z,17.73
2019-01-10T22:04:43.859Z,19.47
2019-01-10T22:07:15.260Z,22.20
2019-01-10T22:09:47.439Z,21.33
2019-01-10T22:12:20.797Z,20.93
2019-01-10T22:14:53.970Z,20.63
2019-01-10T22:17:25.497Z,21.20
2019-01-10T22:19:56.955Z,22.77
2019-01-10T22:22:29.549Z,22.00
2019-01-10T22:25:02.139Z,22.60
2019-01-10T22:27:33.579Z,22.23
2019-01-10T22:30:07.686Z,22.33
2019-01-10T22:33:01.489Z,21.73
2019-01-10T22:35:35.199Z,22.67
2019-01-10T22:38:13.920Z,23.13
2019-01-10T22:40:45.628Z,23.53
2019-01-10T22:43:17.084Z,24.20
2019-01-10T22:45:49.204Z,22.50
2019-01-10T22:48:22.324Z,25.07
2019-01-10T22:50:54.106Z,24.97
2019-01-10T22:53:27.364Z,23.63
2019-01-10T22:56:00.572Z,25.70
2019-01-10T22:58:32.676Z,23.03
2019-01-10T23:01:38.150Z,25.30
2019-01-10T23:04:11.868Z,24.73
2019-01-10T23:06:43.232Z,23.97
2019-01-10T23:09:15.773Z,24.70
2019-01-10T23:11:47.898Z,24.50
2019-01-10T23:14:19.926Z,24.30
2019-01-10T23:16:51.310Z,25.37
2019-01-10T23:19:23.244Z,24.97
2019-01-10T23:21:56.962Z,25.90
2019-01-10T23:24:28.504Z,27.73
2019-01-10T23:27:05.206Z,25.60
2019-01-10T23:29:38.719Z,25.67
2019-01-10T23:32:15.925Z,25.40
2019-01-10T23:34:49.441Z,25.27
2019-01-10T23:37:24.767Z,25.93
2019-01-10T23:39:57.939Z,24.47
2019-01-10T23:42:29.611Z,25.83
2019-01-10T23:45:01.023Z,25.37
2019-01-10T23:47:32.901Z,25.23
2019-01-10T23:50:05.514Z,26.13
2019-01-10T23:52:37.501Z,25.37
2019-01-10T23:55:09.751Z,26.10
2019-01-10T23:57:41.129Z,26.37
